Time;durP1;ratioP1;P1;durP2;ratioP2;P2;SDS_P1;SDS_P2;PMS_P1;PMS_P2;Temp;Humidity;BMP_temperature;BMP_pressure;BME280_temperature;BME280_humidity;BME280_pressure;Samples;Min_cycle;Max_cycle;Signal;HPM_P1;HPM_P2
2021/05/04 00:02:50;;;;;;;;;16.50;15.00;;;;;12.81;38.12;98945.88;6196778;28;128112;-65
2021/05/04 00:05:53;;;;;;;;;16.60;16.00;;;;;12.78;38.01;98937.41;6188303;28;124295;-65
2021/05/04 00:08:55;;;;;;;;;18.60;17.00;;;;;12.83;37.99;98938.34;6188445;28;127624;-65
2021/05/04 00:11:57;;;;;;;;;18.40;15.00;;;;;12.70;38.22;98910.72;6190375;28;126620;-65
2021/05/04 00:15:00;;;;;;;;;14.00;13.25;;;;;12.84;37.90;98929.19;6188809;28;126368;-65
2021/05/04 00:18:04;;;;;;;;;17.20;15.00;;;;;12.82;37.81;98920.47;6187796;28;126309;-65
2021/05/04 00:21:06;;;;;;;;;17.25;16.00;;;;;12.84;37.94;98929.19;6187323;28;126731;-66
2021/05/04 00:24:09;;;;;;;;;16.80;16.00;;;;;12.87;37.74;98917.88;6187141;28;126741;-65
2021/05/04 00:27:11;;;;;;;;;17.00;16.00;;;;;12.91;37.68;98924.47;6188533;28;125913;-66
2021/05/04 00:30:14;;;;;;;;;16.40;14.40;;;;;12.91;37.77;98921.75;6186995;28;125177;-65
2021/05/04 00:33:17;;;;;;;;;16.00;15.00;;;;;12.89;37.88;98918.47;6187959;28;125570;-66
2021/05/04 00:36:20;;;;;;;;;18.00;17.00;;;;;12.85;37.91;98922.69;6187372;28;125498;-65
2021/05/04 00:39:26;;;;;;;;;16.50;15.50;;;;;12.85;37.85;98924.59;6203491;28;125960;-66
2021/05/04 00:42:28;;;;;;;;;17.00;16.00;;;;;12.80;37.90;98924.47;6202190;28;124959;-66
2021/05/04 00:45:30;;;;;;;;;16.00;14.60;;;;;12.78;37.79;98924.72;6188277;28;126558;-66
2021/05/04 00:48:33;;;;;;;;;16.60;14.20;;;;;12.77;37.84;98928.47;6203845;28;124166;-65
2021/05/04 00:51:37;;;;;;;;;14.00;13.00;;;;;12.71;37.71;98917.75;6188376;28;125023;-66
2021/05/04 00:54:41;;;;;;;;;18.50;16.50;;;;;12.72;37.91;98922.09;6188567;28;124957;-66
2021/05/04 00:57:45;;;;;;;;;13.00;13.00;;;;;12.66;37.96;98915.75;6188624;28;123554;-65
2021/05/04 01:00:48;;;;;;;;;14.60;13.00;;;;;12.46;38.16;98901.75;6170746;28;126118;-66
2021/05/04 01:03:51;;;;;;;;;14.40;14.00;;;;;12.53;38.25;98915.97;6194802;28;126489;-66
2021/05/04 01:06:53;;;;;;;;;14.00;13.00;;;;;12.40;38.68;98911.63;6212571;28;127365;-66
2021/05/04 01:09:56;;;;;;;;;15.60;14.40;;;;;12.44;38.52;98904.69;6212477;28;125243;-66
2021/05/04 01:12:58;;;;;;;;;14.00;12.00;;;;;12.41;38.41;98898.94;6211161;28;127066;-66
2021/05/04 01:16:00;;;;;;;;;15.00;14.40;;;;;12.35;38.69;98906.09;6211113;28;125441;-66
2021/05/04 01:19:04;;;;;;;;;13.00;12.75;;;;;12.35;38.37;98891.75;6212180;28;127178;-65
2021/05/04 01:22:07;;;;;;;;;12.75;11.25;;;;;12.33;38.72;98893.84;6212563;28;124996;-66
2021/05/04 01:25:21;;;;;;;;;16.40;15.40;;;;;12.31;38.40;98886.00;6212161;28;126336;-66
2021/05/04 01:28:23;;;;;;;;;14.00;13.00;;;;;12.34;38.42;98895.50;6212165;28;126272;-65
2021/05/04 01:31:25;;;;;;;;;13.20;13.00;;;;;12.35;38.17;98895.28;6209450;28;127531;-66
2021/05/04 01:34:31;;;;;;;;;14.40;13.00;;;;;12.29;38.28;98888.09;6196927;28;124782;-66
2021/05/04 01:37:36;;;;;;;;;15.00;15.00;;;;;12.28;38.14;98885.59;6207630;28;125205;-66
2021/05/04 01:40:38;;;;;;;;;15.00;14.00;;;;;12.32;38.13;98875.97;6212497;28;124982;-66
2021/05/04 01:43:41;;;;;;;;;15.00;14.00;;;;;12.25;38.14;98870.69;6212113;28;126285;-66
2021/05/04 01:46:43;;;;;;;;;14.00;14.00;;;;;12.20;38.19;98873.28;6211801;28;125241;-66
2021/05/04 01:49:45;;;;;;;;;12.75;12.75;;;;;12.24;38.08;98868.22;6211278;28;128239;-66
2021/05/04 01:52:48;;;;;;;;;14.00;14.00;;;;;12.24;38.05;98862.81;6211089;28;126515;-66
2021/05/04 01:55:50;;;;;;;;;13.60;13.00;;;;;12.28;37.90;98862.09;6212325;28;124966;-66
2021/05/04 01:58:55;;;;;;;;;13.50;13.00;;;;;12.29;37.87;98866.47;6211410;28;125304;-66
2021/05/04 02:01:58;;;;;;;;;13.75;13.50;;;;;12.23;37.69;98831.41;6204837;28;123517;-66
2021/05/04 02:05:00;;;;;;;;;15.00;14.00;;;;;12.19;37.74;98820.25;6211744;28;126382;-66
2021/05/04 02:08:04;;;;;;;;;12.60;11.60;;;;;12.41;37.69;98855.69;6211224;28;127463;-66
2021/05/04 02:11:07;;;;;;;;;13.00;12.00;;;;;12.43;37.23;98845.44;6209233;28;125256;-66
2021/05/04 02:14:09;;;;;;;;;12.40;12.00;;;;;12.46;37.13;98847.69;6210134;28;126905;-66
2021/05/04 02:17:11;;;;;;;;;10.00;10.00;;;;;12.42;37.20;98846.47;6211397;28;125272;-66
2021/05/04 02:20:15;;;;;;;;;14.00;13.00;;;;;12.46;37.00;98848.47;6211014;28;128259;-65
2021/05/04 02:23:18;;;;;;;;;10.00;9.60;;;;;12.45;36.71;98852.25;6211287;28;125072;-66
2021/05/04 02:26:20;;;;;;;;;10.40;10.40;;;;;12.41;36.77;98847.56;6209348;28;124968;-66
2021/05/04 02:29:22;;;;;;;;;12.00;11.00;;;;;12.39;36.78;98846.97;6211607;28;126729;-66
2021/05/04 02:32:26;;;;;;;;;12.00;11.00;;;;;12.40;36.58;98854.84;6197747;28;126325;-66
2021/05/04 02:35:29;;;;;;;;;10.25;9.00;;;;;12.42;36.61;98849.19;6186514;28;123557;-66
2021/05/04 02:38:34;;;;;;;;;11.50;10.50;;;;;12.34;36.30;98844.13;6186414;28;126953;-66
2021/05/04 02:41:36;;;;;;;;;10.40;10.00;;;;;12.40;36.65;98843.22;6185013;28;126945;-66
2021/05/04 02:44:38;;;;;;;;;11.00;11.00;;;;;12.42;36.46;98838.38;6186282;28;125990;-66
2021/05/04 02:47:40;;;;;;;;;7.00;7.00;;;;;12.43;36.24;98838.16;6184864;28;124480;-66
2021/05/04 02:50:43;;;;;;;;;10.00;10.00;;;;;12.38;36.34;98850.72;6186416;28;126470;-66
2021/05/04 02:53:46;;;;;;;;;10.00;10.00;;;;;12.38;36.48;98848.84;6184390;28;126420;-66
2021/05/04 02:56:48;;;;;;;;;10.00;9.00;;;;;12.40;36.36;98843.22;6186352;28;126402;-66
2021/05/04 02:59:55;;;;;;;;;10.00;9.00;;;;;12.40;36.30;98846.75;6185206;28;124358;-66
2021/05/04 03:02:57;;;;;;;;;10.00;9.00;;;;;12.43;36.22;98848.13;6204635;28;128213;-66
2021/05/04 03:05:59;;;;;;;;;8.00;7.00;;;;;12.43;36.30;98848.97;6203071;28;125278;-66
2021/05/04 03:09:03;;;;;;;;;10.40;9.00;;;;;12.42;36.06;98836.50;6172662;28;124360;-66
2021/05/04 03:12:06;;;;;;;;;8.80;8.00;;;;;12.40;36.06;98832.41;6191196;28;124875;-66
2021/05/04 03:15:10;;;;;;;;;8.00;8.00;;;;;12.38;35.99;98827.22;6190252;28;125146;-66
2021/05/04 03:18:12;;;;;;;;;8.60;8.00;;;;;12.39;35.82;98825.34;6188734;28;124808;-66
2021/05/04 03:21:14;;;;;;;;;11.00;8.40;;;;;12.41;35.62;98825.94;6190054;28;125414;-66
2021/05/04 03:24:18;;;;;;;;;9.00;7.80;;;;;12.47;35.65;98814.97;6189658;28;127489;-66
2021/05/04 03:27:20;;;;;;;;;6.00;6.00;;;;;12.49;35.53;98815.59;6188855;28;123197;-66
2021/05/04 03:30:22;;;;;;;;;9.00;9.00;;;;;12.49;35.40;98810.16;6190189;28;127459;-66
2021/05/04 03:33:25;;;;;;;;;6.60;6.60;;;;;12.48;35.51;98805.81;6190317;28;125225;-66
2021/05/04 03:36:27;;;;;;;;;9.00;8.00;;;;;12.44;36.05;98801.13;6188696;28;126843;-66
2021/05/04 03:39:30;;;;;;;;;8.00;8.00;;;;;12.32;36.61;98801.09;6188612;28;123612;-66
2021/05/04 03:42:32;;;;;;;;;8.75;8.00;;;;;12.25;36.91;98794.19;6188593;28;123895;-66
2021/05/04 03:45:35;;;;;;;;;7.25;6.75;;;;;12.19;36.20;98800.53;6194676;28;125136;-66
2021/05/04 03:48:37;;;;;;;;;8.00;8.00;;;;;12.18;36.37;98791.59;6211230;28;127648;-66
2021/05/04 03:51:39;;;;;;;;;10.00;9.60;;;;;12.20;37.03;98796.78;6212516;28;125476;-66
2021/05/04 03:54:42;;;;;;;;;7.00;7.00;;;;;12.08;36.39;98784.06;6214323;28;125238;-66
2021/05/04 03:57:44;;;;;;;;;7.60;6.60;;;;;12.18;36.61;98788.88;6212397;28;126286;-66
2021/05/04 04:00:46;;;;;;;;;9.75;9.00;;;;;12.22;36.66;98790.06;6191766;28;125052;-66
2021/05/04 04:03:49;;;;;;;;;9.00;8.00;;;;;12.29;36.93;98784.53;6194151;28;127015;-66
2021/05/04 04:06:51;;;;;;;;;10.00;10.00;;;;;12.25;37.00;98778.78;6187475;28;126528;-65
2021/05/04 04:09:54;;;;;;;;;8.75;8.00;;;;;12.42;36.42;98785.13;6193685;28;124980;-65
2021/05/04 04:12:57;;;;;;;;;11.00;10.00;;;;;12.53;36.17;98787.00;6198648;28;126570;-66
2021/05/04 04:15:59;;;;;;;;;10.00;9.00;;;;;12.69;35.95;98793.56;6189656;28;127122;-66
2021/05/04 04:19:01;;;;;;;;;10.00;10.00;;;;;12.81;35.84;98782.72;6188819;28;126958;-65
2021/05/04 04:22:03;;;;;;;;;10.00;9.00;;;;;12.95;35.78;98782.22;6187502;28;126875;-67
2021/05/04 04:25:08;;;;;;;;;11.00;10.00;;;;;13.11;35.21;98777.09;6192109;28;127444;-65
2021/05/04 04:28:10;;;;;;;;;12.00;12.00;;;;;13.22;35.93;98781.69;6212377;28;127311;-66
2021/05/04 04:31:13;;;;;;;;;9.00;8.00;;;;;13.21;35.16;98756.50;6197252;28;128383;-66
2021/05/04 04:34:15;;;;;;;;;7.00;7.00;;;;;13.50;34.22;98773.56;6195897;28;126836;-66
2021/05/04 04:37:17;;;;;;;;;8.40;8.00;;;;;13.63;33.58;98777.88;6204213;28;126385;-66
2021/05/04 04:40:21;;;;;;;;;7.60;7.00;;;;;13.77;33.44;98779.19;6188600;28;126223;-66
2021/05/04 04:43:23;;;;;;;;;8.60;7.00;;;;;13.91;33.15;98777.00;6207020;28;125222;-66
2021/05/04 04:46:39;;;;;;;;;7.00;6.60;;;;;14.04;33.26;98784.78;6212029;28;126692;-66
2021/05/04 04:49:41;;;;;;;;;8.00;8.00;;;;;14.13;32.59;98788.72;6212699;28;125361;-67
2021/05/04 04:52:44;;;;;;;;;7.00;6.60;;;;;14.20;32.54;98783.97;6203403;28;128164;-66
2021/05/04 04:55:47;;;;;;;;;7.25;7.25;;;;;14.40;33.22;98783.50;6209920;28;126526;-66
2021/05/04 04:58:49;;;;;;;;;8.00;8.00;;;;;14.60;33.02;98789.22;6210506;28;124850;-66
2021/05/04 05:01:51;;;;;;;;;8.20;8.20;;;;;14.73;32.12;98783.41;6210562;28;125328;-66
2021/05/04 05:04:53;;;;;;;;;8.00;7.00;;;;;14.54;31.95;98739.50;6211918;28;127671;-66
2021/05/04 05:07:55;;;;;;;;;7.67;7.00;;;;;15.00;32.03;98778.88;6211532;28;126550;-66
2021/05/04 05:10:58;;;;;;;;;9.00;8.00;;;;;15.13;31.14;98781.22;6212703;28;126466;-67
2021/05/04 05:14:07;;;;;;;;;7.00;7.00;;;;;15.26;31.20;98777.28;6212831;28;125858;-67
2021/05/04 05:17:10;;;;;;;;;8.00;7.40;;;;;15.38;31.62;98777.97;6209356;28;126015;-66
2021/05/04 05:20:14;;;;;;;;;5.75;5.00;;;;;15.56;31.65;98768.69;6212358;28;127856;-67
2021/05/04 05:23:17;;;;;;;;;8.00;7.00;;;;;15.74;30.68;98768.31;6212442;28;126733;-67
2021/05/04 05:26:21;;;;;;;;;7.00;6.00;;;;;15.78;29.89;98768.63;6210206;28;125161;-67
2021/05/04 05:29:23;;;;;;;;;5.50;5.00;;;;;15.48;29.88;98747.38;6194282;28;126216;-67
2021/05/04 05:32:26;;;;;;;;;8.00;7.00;;;;;15.72;29.93;98758.78;6186672;28;126252;-67
2021/05/04 05:35:29;;;;;;;;;4.40;4.40;;;;;15.58;29.84;98737.47;6185326;28;127200;-67
2021/05/04 05:38:31;;;;;;;;;6.00;6.00;;;;;15.72;30.17;98756.88;6187431;28;124265;-67
2021/05/04 05:41:35;;;;;;;;;7.00;6.00;;;;;15.69;29.92;98751.94;6185956;28;124900;-67
2021/05/04 05:44:37;;;;;;;;;6.00;6.00;;;;;15.74;29.84;98756.59;6186476;28;124773;-67
2021/05/04 05:47:40;;;;;;;;;5.00;5.00;;;;;15.68;30.08;98744.91;6187549;28;124981;-67
2021/05/04 05:50:42;;;;;;;;;6.00;6.00;;;;;15.91;29.97;98738.28;6186944;28;125152;-67
2021/05/04 05:53:44;;;;;;;;;6.00;5.00;;;;;15.90;29.16;98742.06;6187541;28;125469;-67
2021/05/04 05:56:47;;;;;;;;;5.00;4.40;;;;;15.97;29.22;98723.66;6202491;28;128304;-67
2021/05/04 05:59:50;;;;;;;;;6.00;5.00;;;;;16.14;29.15;98727.03;6185642;28;124782;-67
2021/05/04 06:02:52;;;;;;;;;6.00;5.00;;;;;16.20;28.57;98727.88;6186937;28;125441;-66
2021/05/04 06:05:55;;;;;;;;;8.60;8.00;;;;;16.29;28.73;98720.88;6186741;28;126712;-66
2021/05/04 06:08:57;;;;;;;;;6.00;6.00;;;;;16.37;29.44;98696.69;6186721;28;125262;-65
2021/05/04 06:12:00;;;;;;;;;6.00;6.00;;;;;16.65;28.90;98705.59;6187169;28;125221;-65
2021/05/04 06:15:03;;;;;;;;;6.00;6.00;;;;;16.71;28.71;98688.22;6186944;28;125182;-67
2021/05/04 06:18:05;;;;;;;;;6.00;6.00;;;;;16.95;28.51;98694.84;6185480;28;125159;-65
2021/05/04 06:21:07;;;;;;;;;6.00;5.00;;;;;17.10;28.42;98691.34;6186257;28;127439;-65
2021/05/04 06:24:10;;;;;;;;;6.00;6.00;;;;;17.28;27.41;98685.38;6187358;28;125826;-66
2021/05/04 06:27:13;;;;;;;;;6.00;6.00;;;;;17.36;27.31;98684.84;6201360;28;126261;-66
2021/05/04 06:30:18;;;;;;;;;5.40;5.00;;;;;17.30;27.98;98673.09;6186613;28;126663;-67
2021/05/04 06:33:21;;;;;;;;;4.00;4.00;;;;;17.66;27.60;98678.63;6184934;28;124755;-66
2021/05/04 06:36:24;;;;;;;;;5.00;5.00;;;;;17.89;27.23;98661.69;6186174;28;124995;-66
2021/05/04 06:39:26;;;;;;;;;6.00;5.00;;;;;17.92;27.63;98671.25;6168519;28;124160;-65
2021/05/04 06:42:29;;;;;;;;;5.00;5.00;;;;;17.59;26.80;98642.66;6186219;28;125189;-65
2021/05/04 06:45:31;;;;;;;;;4.60;4.60;;;;;17.37;27.15;98648.31;6186028;28;126646;-66
2021/05/04 06:48:33;;;;;;;;;5.00;4.40;;;;;17.06;26.93;98643.91;6186124;28;127242;-66
2021/05/04 06:51:36;;;;;;;;;6.00;5.00;;;;;17.19;27.84;98636.06;6190476;28;125361;-66
2021/05/04 06:54:38;;;;;;;;;6.80;6.00;;;;;17.24;27.37;98636.06;6209620;28;124222;-66
2021/05/04 06:57:41;;;;;;;;;5.00;4.60;;;;;17.28;27.63;98633.59;6210581;28;125661;-66
2021/05/04 07:00:43;;;;;;;;;4.00;4.00;;;;;17.19;27.68;98629.78;6210905;28;124973;-67
2021/05/04 07:03:45;;;;;;;;;4.00;3.75;;;;;17.31;27.50;98622.97;6210592;28;127465;-66
2021/05/04 07:06:48;;;;;;;;;4.00;4.00;;;;;17.45;27.14;98614.25;6205728;28;127519;-66
2021/05/04 07:09:50;;;;;;;;;5.00;5.00;;;;;17.74;27.08;98615.34;6193222;28;127211;-66
2021/05/04 07:12:53;;;;;;;;;5.00;5.00;;;;;17.92;27.12;98614.81;6210534;28;125419;-66
2021/05/04 07:15:55;;;;;;;;;6.00;4.20;;;;;18.07;26.49;98582.03;6210885;28;126795;-66
2021/05/04 07:18:57;;;;;;;;;4.67;4.00;;;;;18.48;26.41;98609.16;6203327;28;126462;-67
2021/05/04 07:22:00;;;;;;;;;4.00;4.00;;;;;18.77;25.83;98601.13;6203757;28;126508;-66
2021/05/04 07:25:03;;;;;;;;;4.00;4.00;;;;;18.69;25.83;98575.25;6209850;28;126056;-66
2021/05/04 07:28:07;;;;;;;;;4.00;4.00;;;;;18.65;25.10;98554.25;6208986;28;123933;-66
2021/05/04 07:31:10;;;;;;;;;6.00;6.00;;;;;18.91;25.31;98580.31;6207901;28;125084;-66
2021/05/04 07:34:12;;;;;;;;;4.00;3.80;;;;;18.92;25.18;98558.16;6209413;28;124248;-66
2021/05/04 07:37:15;;;;;;;;;5.00;4.00;;;;;19.44;24.86;98567.63;6208241;28;126437;-66
2021/05/04 07:40:17;;;;;;;;;4.80;4.80;;;;;19.59;24.56;98570.22;6209134;28;126412;-66
2021/05/04 07:43:22;;;;;;;;;4.00;4.00;;;;;19.57;24.75;98569.69;6209258;28;126297;-67
2021/05/04 07:46:24;;;;;;;;;5.60;5.00;;;;;19.59;25.42;98553.81;6206723;28;126036;-67
2021/05/04 07:49:31;;;;;;;;;5.00;4.80;;;;;19.72;25.04;98553.13;6208149;28;127376;-66
2021/05/04 07:52:34;;;;;;;;;3.00;3.00;;;;;19.78;24.95;98546.50;6212913;28;126892;-67
2021/05/04 07:55:36;;;;;;;;;6.00;5.40;;;;;19.75;24.82;98518.91;6213171;28;126000;-66
2021/05/04 07:58:39;;;;;;;;;5.25;5.25;;;;;19.73;24.79;98534.81;6211995;28;125454;-66
2021/05/04 08:01:41;;;;;;;;;6.50;6.00;;;;;19.95;24.76;98523.34;6198138;28;127383;-66
2021/05/04 08:04:44;;;;;;;;;4.00;4.00;;;;;19.96;25.24;98519.50;6188970;28;126151;-66
2021/05/04 08:07:46;;;;;;;;;5.00;3.75;;;;;20.04;25.22;98518.84;6189262;28;126436;-66
2021/05/04 08:10:48;;;;;;;;;5.00;5.00;;;;;20.07;24.57;98510.06;6189570;28;126453;-67
2021/05/04 08:13:51;;;;;;;;;4.00;4.00;;;;;20.09;25.39;98507.84;6199905;28;126452;-66
2021/05/04 08:16:55;;;;;;;;;5.00;4.80;;;;;20.13;24.79;98487.81;6213903;28;124256;-66
2021/05/04 08:20:00;;;;;;;;;4.00;4.00;;;;;20.46;24.71;98499.72;6212536;28;123859;-66
2021/05/04 08:23:03;;;;;;;;;5.00;4.00;;;;;20.44;25.01;98480.03;6212334;28;124452;-66
2021/05/04 08:26:05;;;;;;;;;5.00;4.00;;;;;20.83;24.18;98487.94;6213061;28;127231;-66
2021/05/04 08:29:09;;;;;;;;;5.00;5.00;;;;;20.94;24.16;98485.84;6212353;28;123140;-66
2021/05/04 08:32:12;;;;;;;;;3.60;3.00;;;;;20.97;23.83;98493.47;6193302;28;126211;-66
2021/05/04 08:35:15;;;;;;;;;6.00;5.00;;;;;20.95;23.83;98482.00;6188622;28;125367;-66
2021/05/04 08:38:17;;;;;;;;;5.00;4.00;;;;;21.08;23.91;98497.69;6186847;28;126041;-66
2021/05/04 08:41:20;;;;;;;;;5.00;4.00;;;;;20.94;24.26;98467.50;6186722;28;126238;-66
2021/05/04 08:44:23;;;;;;;;;6.00;6.00;;;;;21.21;24.30;98485.19;6188551;28;126981;-66
2021/05/04 08:47:26;;;;;;;;;5.00;5.00;;;;;21.56;24.36;98455.16;6188383;28;125943;-66
2021/05/04 08:50:30;;;;;;;;;5.00;5.00;;;;;21.59;23.72;98471.03;6202609;28;125247;-66
2021/05/04 08:53:32;;;;;;;;;5.75;4.25;;;;;21.75;23.74;98454.25;6191038;28;124476;-66
2021/05/04 08:56:35;;;;;;;;;6.00;5.00;;;;;21.96;23.82;98444.53;6211154;28;125170;-66
2021/05/04 08:59:38;;;;;;;;;4.80;4.00;;;;;22.34;23.50;98437.63;6206432;28;125937;-66
2021/05/04 09:02:58;;;;;;;;;4.00;4.00;;;;;22.16;22.73;98419.38;6186861;28;125695;-66
2021/05/04 09:06:05;;;;;;;;;5.00;5.00;;;;;22.04;22.94;98417.16;6187855;28;123656;-66
2021/05/04 09:09:15;;;;;;;;;5.00;5.00;;;;;22.30;22.85;98408.34;6186425;28;124796;-66
2021/05/04 09:12:31;;;;;;;;;5.00;5.00;;;;;22.48;22.66;98424.66;6187399;28;124660;-66
2021/05/04 09:19:16;;;;;;;;;6.80;4.40;;;;;22.77;22.39;98405.03;6176165;28;123780;-67
2021/05/04 09:22:32;;;;;;;;;3.20;3.00;;;;;22.92;22.31;98387.34;6187971;28;126410;-67
2021/05/04 09:25:36;;;;;;;;;6.60;6.00;;;;;23.21;22.07;98395.13;6185654;28;125964;-67
2021/05/04 09:28:47;;;;;;;;;5.00;5.00;;;;;23.31;22.07;98390.16;6210719;28;124439;-67
2021/05/04 09:31:51;;;;;;;;;5.00;5.00;;;;;23.47;21.69;98395.28;6194072;28;123049;-67
2021/05/04 09:34:56;;;;;;;;;5.00;4.00;;;;;23.37;21.37;98390.00;6210283;28;124455;-67
2021/05/04 09:38:05;;;;;;;;;5.00;5.00;;;;;23.46;21.47;98379.88;6212173;28;125144;-67
2021/05/04 09:41:30;;;;;;;;;4.00;4.00;;;;;23.34;21.58;98377.72;6210775;28;126629;-67
2021/05/04 09:44:37;;;;;;;;;4.20;4.20;;;;;23.19;21.14;98381.69;6202788;28;126968;-67
2021/05/04 09:47:40;;;;;;;;;5.00;4.00;;;;;23.16;21.65;98354.84;6198238;28;124417;-67
2021/05/04 09:50:57;;;;;;;;;6.00;5.20;;;;;23.23;21.80;98346.94;6204344;28;126606;-67
2021/05/04 09:54:05;;;;;;;;;4.40;4.40;;;;;23.27;21.65;98344.34;6211296;28;124640;-67
2021/05/04 09:57:29;;;;;;;;;5.00;5.00;;;;;23.29;21.57;98307.16;6200107;28;124665;-67
2021/05/04 10:00:32;;;;;;;;;5.00;5.00;;;;;23.35;21.56;98309.78;6210310;28;125042;-67
2021/05/04 10:03:37;;;;;;;;;4.60;4.60;;;;;23.69;21.14;98318.16;6207598;28;127567;-67
2021/05/04 10:06:40;;;;;;;;;5.00;4.40;;;;;23.78;21.34;98310.72;6209737;28;126030;-67
2021/05/04 10:09:42;;;;;;;;;4.00;3.80;;;;;23.89;21.30;98301.00;6209903;28;126248;-67
2021/05/04 10:12:46;;;;;;;;;3.75;3.75;;;;;23.90;20.95;98312.81;6204211;28;124997;-67
2021/05/04 10:15:49;;;;;;;;;4.00;4.00;;;;;23.82;21.00;98286.09;6187743;28;124384;-67
2021/05/04 10:18:56;;;;;;;;;5.00;4.00;;;;;23.88;21.52;98285.63;6185656;28;126722;-67
2021/05/04 10:21:59;;;;;;;;;5.00;4.20;;;;;23.77;21.11;98287.06;6184797;28;124349;-67
2021/05/04 10:25:03;;;;;;;;;4.00;4.00;;;;;23.86;21.00;98292.56;6203562;28;125905;-67
2021/05/04 10:28:07;;;;;;;;;3.40;3.40;;;;;23.69;21.38;98254.84;6209665;28;125470;-67
2021/05/04 10:31:13;;;;;;;;;4.00;4.00;;;;;24.01;21.73;98265.38;6201691;28;126146;-67
2021/05/04 10:34:32;;;;;;;;;4.00;4.00;;;;;24.19;21.05;98254.38;6209138;28;126881;-67
2021/05/04 10:37:35;;;;;;;;;4.00;4.00;;;;;24.41;20.72;98243.97;6210753;28;126114;-67
2021/05/04 10:40:40;;;;;;;;;5.00;4.00;;;;;24.40;20.69;98230.50;6209945;28;126499;-68
2021/05/04 10:44:01;;;;;;;;;4.50;4.00;;;;;24.59;21.22;98234.50;6208012;28;124610;-66
2021/05/04 10:47:11;;;;;;;;;6.00;5.40;;;;;24.59;21.33;98229.00;6193165;28;125819;-66
2021/05/04 10:50:16;;;;;;;;;3.00;3.00;;;;;24.79;20.79;98208.19;6185539;28;123931;-66
2021/05/04 10:54:02;;;;;;;;;4.00;4.00;;;;;25.16;20.53;98203.81;6185379;28;126188;-66
2021/05/04 10:57:05;;;;;;;;;4.00;4.00;;;;;25.16;20.13;98203.81;6195475;28;125921;-66
2021/05/04 11:00:08;;;;;;;;;4.00;4.00;;;;;25.44;19.25;98191.13;6184589;28;125426;-66
2021/05/04 11:03:44;;;;;;;;;4.00;4.00;;;;;25.64;18.27;98185.97;6182757;28;125979;-67
2021/05/04 11:06:48;;;;;;;;;4.00;4.00;;;;;25.95;18.49;98191.09;6185130;28;125953;-66
2021/05/04 11:10:12;;;;;;;;;4.20;4.20;;;;;26.15;18.29;98188.25;6185190;28;126227;-65
2021/05/04 11:13:44;;;;;;;;;5.00;3.60;;;;;26.45;18.42;98174.31;6185790;28;126781;-68
2021/05/04 11:16:47;;;;;;;;;3.20;3.00;;;;;26.50;17.53;98166.63;6185502;28;124813;-66
2021/05/04 11:19:50;;;;;;;;;4.00;4.00;;;;;26.51;17.37;98161.91;6198847;28;126768;-66
2021/05/04 11:22:53;;;;;;;;;4.20;4.00;;;;;26.36;17.33;98166.13;6206462;28;126350;-66
2021/05/04 11:25:55;;;;;;;;;4.00;4.00;;;;;26.07;17.43;98166.25;6197863;28;124870;-66
2021/05/04 11:29:08;;;;;;;;;4.00;4.00;;;;;26.10;17.69;98146.22;6197194;28;127059;-66
2021/05/04 11:32:12;;;;;;;;;3.00;3.00;;;;;26.07;18.00;98130.34;6196455;28;124985;-66
2021/05/04 11:35:16;;;;;;;;;5.25;5.00;;;;;25.87;17.76;98121.78;6196071;28;125206;-66
2021/05/04 11:38:19;;;;;;;;;4.33;4.00;;;;;26.09;17.63;98126.09;6206570;28;125273;-66
2021/05/04 11:41:22;;;;;;;;;4.60;4.60;;;;;26.41;18.20;98105.09;6202099;28;126569;-66
2021/05/04 11:44:28;;;;;;;;;4.00;4.00;;;;;26.43;17.25;98124.94;6193878;28;126369;-66
2021/05/04 11:47:31;;;;;;;;;4.00;4.00;;;;;26.39;17.35;98134.25;6206186;28;125675;-66
2021/05/04 11:50:35;;;;;;;;;4.00;3.00;;;;;26.47;17.58;98117.56;6189481;28;126615;-66
2021/05/04 11:53:39;;;;;;;;;3.00;3.00;;;;;26.60;17.21;98113.63;6190773;28;125073;-66
2021/05/04 11:56:50;;;;;;;;;4.00;4.00;;;;;26.60;17.07;98088.75;6189025;28;124900;-66
2021/05/04 11:59:53;;;;;;;;;3.00;3.00;;;;;26.75;16.75;98098.31;6189469;28;124465;-66
2021/05/04 12:02:55;;;;;;;;;5.00;5.00;;;;;26.63;16.82;98087.28;6187399;28;126917;-66
2021/05/04 12:05:59;;;;;;;;;3.00;3.00;;;;;26.57;16.73;98089.47;6188435;28;125142;-66
2021/05/04 12:09:13;;;;;;;;;3.40;3.40;;;;;26.58;16.07;98085.56;6188833;28;126325;-66
2021/05/04 12:12:16;;;;;;;;;4.00;4.00;;;;;26.74;17.05;98078.16;6188595;28;125047;-67
2021/05/04 12:15:20;;;;;;;;;4.00;3.60;;;;;26.68;16.12;98075.97;6200113;28;125328;-67
2021/05/04 12:18:24;;;;;;;;;4.00;4.00;;;;;26.43;15.66;98077.94;6213397;28;124999;-68
2021/05/04 12:21:26;;;;;;;;;3.80;3.80;;;;;26.57;16.65;98027.84;6211961;28;125454;-67
2021/05/04 12:24:30;;;;;;;;;3.20;3.20;;;;;26.91;15.58;98051.44;6212928;28;126371;-68
2021/05/04 12:27:32;;;;;;;;;3.00;3.00;;;;;26.74;15.32;98050.50;6212862;28;124905;-66
2021/05/04 12:30:34;;;;;;;;;3.40;3.40;;;;;26.65;15.54;98055.34;6195824;28;125191;-66
2021/05/04 12:33:40;;;;;;;;;4.60;4.00;;;;;26.68;16.39;98049.13;6214037;28;125044;-68
2021/05/04 12:36:47;;;;;;;;;4.00;3.20;;;;;26.87;16.50;98039.47;6194115;28;126204;-66
2021/05/04 12:39:50;;;;;;;;;3.00;3.00;;;;;26.96;15.94;98031.81;6187898;28;123349;-68
2021/05/04 12:43:09;;;;;;;;;3.00;3.00;;;;;26.90;16.17;98028.50;6188437;28;126297;-67
2021/05/04 12:46:18;;;;;;;;;3.00;3.00;;;;;26.71;16.85;98037.38;6187375;28;123691;-66
2021/05/04 12:49:32;;;;;;;;;4.00;3.00;;;;;26.62;16.57;98022.06;6186468;28;124806;-66
2021/05/04 12:52:38;;;;;;;;;4.00;3.00;;;;;26.76;16.92;98022.50;6186547;28;123959;-66
2021/05/04 12:55:58;;;;;;;;;4.00;3.00;;;;;26.41;16.23;98019.44;6188474;28;124965;-66
2021/05/04 12:59:04;;;;;;;;;4.00;3.00;;;;;26.49;16.98;98007.44;6188262;28;125912;-68
2021/05/04 13:02:06;;;;;;;;;3.00;3.00;;;;;26.54;16.76;98012.72;6188341;28;126050;-68
2021/05/04 13:05:19;;;;;;;;;3.00;3.00;;;;;26.55;16.83;98000.53;6198937;28;127186;-67
2021/05/04 13:08:22;;;;;;;;;4.00;4.00;;;;;26.38;15.79;98006.31;6187697;28;125086;-67
2021/05/04 13:11:43;;;;;;;;;3.00;3.00;;;;;26.37;16.40;98012.19;6209670;28;125337;-67
2021/05/04 13:15:04;;;;;;;;;3.00;3.00;;;;;26.27;16.87;98024.50;6212263;28;124682;-66
2021/05/04 13:18:26;;;;;;;;;5.40;4.40;;;;;26.21;16.29;98015.63;6211325;28;122779;-67
2021/05/04 13:28:15;;;;;;;;;4.00;4.00;;;;;26.42;16.02;97998.13;6189270;28;125390;-66
2021/05/04 13:28:58;;;;;;;;;6.00;5.00;;;;;26.37;15.52;98001.94;6187581;28;124534;-68
2021/05/04 13:32:05;;;;;;;;;6.00;6.00;;;;;26.50;15.83;97995.22;6186388;28;124683;-66
2021/05/04 13:35:11;;;;;;;;;6.00;6.00;;;;;26.15;16.22;97949.88;6186161;28;125115;-66
2021/05/04 13:38:27;;;;;;;;;5.00;5.00;;;;;26.26;15.94;97973.97;6170003;28;124753;-66
2021/05/04 13:48:25;;;;;;;;;5.50;5.00;;;;;26.17;17.31;97967.72;6167918;28;123982;-67
2021/05/04 13:51:27;;;;;;;;;5.00;5.00;;;;;26.23;17.53;97969.13;6187681;28;126694;-67
2021/05/04 13:54:30;;;;;;;;;5.60;5.60;;;;;26.03;17.00;97983.84;6187300;28;127056;-67
2021/05/04 13:57:33;;;;;;;;;6.00;6.00;;;;;26.03;17.00;97980.25;6194197;28;124216;-67
2021/05/04 14:00:43;;;;;;;;;5.25;5.25;;;;;25.91;17.18;97969.19;6211844;28;126647;-67
2021/05/04 14:03:56;;;;;;;;;6.00;6.00;;;;;25.81;17.77;97956.66;6210399;28;124540;-67
2021/05/04 14:27:05;;;;;;;;;6.00;6.00;;;;;25.25;19.02;97961.81;6211687;28;125464;-67
2021/05/04 14:30:10;;;;;;;;;7.00;7.00;;;;;25.05;19.26;97950.81;6209798;28;126427;-67
2021/05/04 14:33:13;;;;;;;;;6.00;6.00;;;;;25.14;19.44;97943.25;6187030;28;125921;-67
2021/05/04 14:36:44;;;;;;;;;5.00;5.00;;;;;24.94;19.19;97911.81;6202286;28;124345;-67
2021/05/04 14:39:55;;;;;;;;;5.00;4.60;;;;;25.05;18.80;97935.06;6209646;28;125156;-66
2021/05/04 15:00:03;;;;;;;;;4.20;4.00;;;;;24.89;20.18;97932.13;6178219;28;126178;-67
2021/05/04 15:03:05;;;;;;;;;6.00;6.00;;;;;24.86;20.51;97907.16;6219192;27;125638;-66
2021/05/04 15:06:08;;;;;;;;;7.00;6.00;;;;;24.88;20.23;97908.44;6219588;28;126357;-66
2021/05/04 15:09:12;;;;;;;;;5.25;5.00;;;;;24.89;20.34;97899.03;6217760;28;126085;-67